Time;durP1;ratioP1;P1;durP2;ratioP2;P2;SDS_P1;SDS_P2;PMS_P1;PMS_P2;Temp;Humidity;BMP_temperature;BMP_pressure;BME280_temperature;BME280_humidity;BME280_pressure;Samples;Min_cycle;Max_cycle;Signal;HPM_P1;HPM_P2
2023/03/15 00:00:17;;;;;;;8.30;1.92;;;;;;;2.60;100.00;101064.38;4972370;28;20039;-57
2023/03/15 00:02:43;;;;;;;5.60;1.05;;;;;;;2.26;100.00;101001.06;4972661;28;20038;-56
2023/03/15 00:05:11;;;;;;;7.00;1.40;;;;;;;2.74;100.00;101067.88;4971620;28;20037;-56
2023/03/15 00:07:37;;;;;;;4.22;1.08;;;;;;;2.64;100.00;101049.66;4971749;28;20034;-56
2023/03/15 00:10:03;;;;;;;6.20;1.38;;;;;;;2.77;100.00;101060.09;4960349;28;20054;-56
2023/03/15 00:12:28;;;;;;;5.65;1.00;;;;;;;2.81;100.00;101071.38;4953768;28;20069;-55
2023/03/15 00:14:54;;;;;;;2.08;1.08;;;;;;;2.34;100.00;100990.66;4953631;28;20106;-53
2023/03/15 00:17:21;;;;;;;3.67;1.10;;;;;;;2.60;100.00;101051.38;4953379;28;20372;-57
2023/03/15 00:19:47;;;;;;;3.85;0.98;;;;;;;2.67;100.00;101078.28;4953869;28;20035;-58
2023/03/15 00:22:12;;;;;;;4.60;1.00;;;;;;;2.13;100.00;100988.88;4953606;28;20459;-56
2023/03/15 00:24:38;;;;;;;6.95;1.00;;;;;;;2.56;100.00;101075.66;4968544;28;20031;-58
2023/03/15 00:27:04;;;;;;;4.88;1.00;;;;;;;2.56;100.00;101085.16;4953410;28;20035;-58
2023/03/15 00:29:30;;;;;;;4.05;1.10;;;;;;;1.38;100.00;100910.63;4953554;28;20118;-56
2023/03/15 00:31:55;;;;;;;5.13;1.33;;;;;;;2.03;100.00;101041.63;4953745;28;20122;-56
2023/03/15 00:34:24;;;;;;;4.13;1.63;;;;;;;2.24;100.00;101111.00;4952872;28;20046;-57
2023/03/15 00:36:52;;;;;;;2.95;1.20;;;;;;;1.86;100.00;101043.25;4968187;28;20077;-56
2023/03/15 00:39:20;;;;;;;8.05;1.40;;;;;;;2.28;100.00;101120.50;4970475;28;20079;-57
2023/03/15 00:41:46;;;;;;;8.48;2.03;;;;;;;2.25;100.00;101089.34;4962977;28;20456;-57
2023/03/15 00:44:11;;;;;;;8.02;1.33;;;;;;;2.36;100.00;101113.66;4972631;28;20121;-56
2023/03/15 00:46:37;;;;;;;4.03;1.27;;;;;;;2.37;100.00;101117.97;4961482;28;20041;-57
2023/03/15 00:49:02;;;;;;;7.28;1.45;;;;;;;2.30;100.00;101110.16;4966818;28;20120;-57
2023/03/15 00:51:28;;;;;;;3.47;2.08;;;;;;;2.20;100.00;101106.63;4946290;28;20109;-55
2023/03/15 00:53:54;;;;;;;7.72;1.20;;;;;;;1.81;100.00;101062.25;4987162;28;20050;-56
2023/03/15 00:56:24;;;;;;;4.68;1.10;;;;;;;2.01;100.00;101115.19;4963142;28;20090;-56
2023/03/15 00:58:53;;;;;;;7.63;2.13;;;;;;;1.53;100.00;101041.31;4966212;28;20057;-58
2023/03/15 01:01:21;;;;;;;3.33;1.30;;;;;;;1.86;100.00;101099.50;4971450;28;20054;-56
2023/03/15 01:03:47;;;;;;;7.60;1.58;;;;;;;1.65;100.00;101090.69;4957699;28;20035;-57
2023/03/15 01:06:21;;;;;;;3.67;1.42;;;;;;;1.25;100.00;101039.34;4979224;28;20094;-56
2023/03/15 01:08:47;;;;;;;6.80;1.75;;;;;;;1.56;100.00;101115.69;4980211;28;20031;-57
2023/03/15 01:11:15;;;;;;;5.88;1.55;;;;;;;1.60;100.00;101120.94;4971424;28;20432;-56
2023/03/15 01:13:41;;;;;;;7.93;1.95;;;;;;;1.55;100.00;101126.91;4972523;28;20031;-56
2023/03/15 01:16:08;;;;;;;5.90;1.35;;;;;;;1.15;100.00;101076.41;4971074;28;20030;-56
2023/03/15 01:18:33;;;;;;;4.18;1.55;;;;;;;1.50;100.00;101146.75;4972624;28;20115;-56
2023/03/15 01:20:59;;;;;;;3.03;1.48;;;;;;;1.38;100.00;101119.00;4972351;28;20035;-57
2023/03/15 01:23:24;;;;;;;5.63;1.30;;;;;;;1.45;100.00;101138.94;4970787;28;20125;-54
2023/03/15 01:25:49;;;;;;;5.88;1.33;;;;;;;0.98;100.00;101075.38;4971472;28;20096;-55
2023/03/15 01:28:15;;;;;;;5.75;1.38;;;;;;;1.07;100.00;101110.06;4971361;28;20075;-56
2023/03/15 01:30:48;;;;;;;6.93;1.83;;;;;;;0.84;100.00;101082.16;4976019;28;20046;-55
2023/03/15 01:44:20;;;;;;;7.88;1.75;;;;;;;1.37;100.00;101182.06;4934558;29;20046;-58
2023/03/15 01:46:49;;;;;;;7.60;1.60;;;;;;;1.44;100.00;101168.31;4936939;29;20035;-58
2023/03/15 01:49:18;;;;;;;8.63;1.88;;;;;;;1.35;100.00;101150.06;4936836;29;20054;-58
2023/03/15 01:51:49;;;;;;;7.70;1.60;;;;;;;1.53;100.00;101191.78;4936891;29;20046;-58
2023/03/15 01:54:26;;;;;;;4.15;1.30;;;;;;;1.48;100.00;101190.88;4936246;29;20043;-58
2023/03/15 01:56:56;;;;;;;8.38;2.08;;;;;;;1.33;100.00;101167.34;4935484;29;20490;-59
2023/03/15 01:59:26;;;;;;;7.18;1.40;;;;;;;1.37;100.00;101186.41;4945041;28;20454;-58
2023/03/15 02:01:53;;;;;;;5.10;1.50;;;;;;;1.43;100.00;101189.09;4970861;28;20035;-58
2023/03/15 02:04:24;;;;;;;6.53;1.40;;;;;;;1.48;100.00;101190.88;4954820;28;20468;-58
2023/03/15 02:06:57;;;;;;;2.65;1.27;;;;;;;0.90;100.00;101090.88;4954566;29;20027;-56
2023/03/15 02:09:30;;;;;;;7.45;1.55;;;;;;;1.11;100.00;101127.34;4955447;29;20038;-58
2023/03/15 02:11:56;;;;;;;6.80;2.50;;;;;;;1.46;100.00;101208.13;4954809;29;20083;-58
2023/03/15 02:14:22;;;;;;;8.32;1.65;;;;;;;1.40;100.00;101200.25;4954633;29;20109;-58
2023/03/15 02:16:47;;;;;;;8.20;1.58;;;;;;;1.38;100.00;101203.69;4955287;28;20031;-58
2023/03/15 02:19:39;;;;;;;4.07;1.20;;;;;;;1.29;100.00;101201.88;4955716;29;20031;-58
2023/03/15 02:22:29;;;;;;;10.38;1.80;;;;;;;1.24;100.00;101215.66;4955490;29;20094;-58
2023/03/15 02:25:03;;;;;;;2.85;1.73;;;;;;;1.13;100.00;101210.34;4954420;29;20528;-58
2023/03/15 02:27:31;;;;;;;9.75;2.38;;;;;;;1.01;100.00;101203.31;4954350;29;20079;-57
2023/03/15 02:29:56;;;;;;;4.32;1.58;;;;;;;0.67;100.00;101148.47;4970348;28;20030;-58
2023/03/15 02:32:21;;;;;;;4.03;1.92;;;;;;;1.04;100.00;101223.19;4954584;28;20042;-57
2023/03/15 02:34:47;;;;;;;5.03;1.80;;;;;;;0.98;100.00;101215.34;4955468;29;20483;-57
2023/03/15 02:37:12;;;;;;;4.60;1.40;;;;;;;0.43;100.00;101134.34;4955482;29;20027;-56
2023/03/15 02:39:37;;;;;;;3.47;1.65;;;;;;;0.77;100.00;101207.28;4955368;28;20131;-56
2023/03/15 02:42:03;;;;;;;4.93;1.70;;;;;;;0.82;100.00;101234.13;4954720;29;20031;-58
2023/03/15 02:44:33;;;;;;;4.38;1.48;;;;;;;0.33;100.00;101167.84;4958214;28;20102;-57
2023/03/15 02:47:13;;;;;;;2.83;1.45;;;;;;;0.66;100.00;101238.25;4973143;28;20042;-57
2023/03/15 02:49:41;;;;;;;5.80;1.70;;;;;;;0.12;100.00;101157.19;4970022;28;20099;-57
2023/03/15 02:52:07;;;;;;;5.07;1.52;;;;;;;0.17;100.00;101171.94;4955169;28;20372;-55
2023/03/15 02:54:33;;;;;;;6.15;1.52;;;;;;;0.13;100.00;101164.97;4955099;29;20058;-57
2023/03/15 02:57:00;;;;;;;8.13;1.95;;;;;;;0.12;100.00;101181.34;4969765;28;20110;-56
2023/03/15 02:59:25;;;;;;;4.32;1.60;;;;;;;0.20;100.00;101197.00;4955044;29;20479;-55
2023/03/15 03:01:51;;;;;;;3.60;1.48;;;;;;;0.53;100.00;101259.63;4955235;28;20042;-57
2023/03/15 03:04:16;;;;;;;4.20;1.80;;;;;;;0.16;100.00;101190.91;4957185;28;20380;-57
2023/03/15 03:06:42;;;;;;;5.57;1.85;;;;;;;0.64;100.00;101262.41;4974263;28;20130;-54
2023/03/15 03:09:09;;;;;;;9.45;1.67;;;;;;;0.45;100.00;101209.44;4972828;28;20031;-57
2023/03/15 03:11:34;;;;;;;5.43;1.92;;;;;;;1.01;100.00;101282.78;4974153;28;20506;-56
2023/03/15 03:13:59;;;;;;;12.13;2.22;;;;;;;1.22;100.00;101285.66;4972816;28;20126;-58
2023/03/15 03:16:25;;;;;;;10.43;2.53;;;;;;;1.37;100.00;101282.38;4973898;28;20134;-56
2023/03/15 03:18:50;;;;;;;6.05;1.63;;;;;;;1.60;100.00;101304.28;4974236;28;20498;-56
2023/03/15 03:21:15;;;;;;;4.05;2.00;;;;;;;1.70;100.00;101301.78;4973157;28;20039;-57
2023/03/15 03:23:41;;;;;;;6.40;1.92;;;;;;;1.44;100.00;101245.28;4974059;28;20475;-54
2023/03/15 03:26:15;;;;;;;8.25;2.13;;;;;;;1.83;100.00;101313.19;4973805;28;20134;-53
2023/03/15 03:28:41;;;;;;;5.18;1.20;;;;;;;1.85;100.00;101311.47;4973668;28;20416;-55
2023/03/15 03:31:15;;;;;;;5.20;1.42;;;;;;;1.88;100.00;101310.63;4972605;28;20035;-58
2023/03/15 03:33:40;;;;;;;3.47;1.27;;;;;;;1.39;100.00;101236.56;4973860;28;20031;-57
2023/03/15 03:36:06;;;;;;;4.40;1.13;;;;;;;1.73;100.00;101307.84;4973467;28;20034;-56
2023/03/15 03:38:31;;;;;;;4.35;1.60;;;;;;;1.63;100.00;101309.50;4972654;28;20043;-57
2023/03/15 03:40:56;;;;;;;9.32;2.33;;;;;;;1.11;100.00;101244.03;4972182;28;20054;-58
2023/03/15 03:43:22;;;;;;;9.50;1.25;;;;;;;1.45;100.00;101323.13;4973310;28;20496;-57
2023/03/15 03:45:47;;;;;;;4.88;1.38;;;;;;;1.36;100.00;101316.94;4973551;28;20391;-57
2023/03/15 03:48:12;;;;;;;5.03;1.55;;;;;;;1.07;100.00;101301.00;4973520;28;20047;-57
2023/03/15 03:50:38;;;;;;;4.68;1.27;;;;;;;1.09;100.00;101326.09;4972095;28;20030;-56
2023/03/15 03:53:03;;;;;;;3.80;1.10;;;;;;;1.00;100.00;101356.19;4972670;28;20027;-57
2023/03/15 03:55:28;;;;;;;3.33;1.30;;;;;;;0.97;100.00;101335.41;4987591;28;20038;-56
2023/03/15 03:57:54;;;;;;;6.60;1.50;;;;;;;0.88;100.00;101351.72;4987963;28;20039;-57
2023/03/15 04:00:20;;;;;;;7.50;1.85;;;;;;;0.78;100.00;101349.84;4973425;28;20098;-56
2023/03/15 04:02:45;;;;;;;3.42;1.30;;;;;;;0.34;100.00;101309.41;4973354;28;20413;-60
2023/03/15 04:05:11;;;;;;;8.85;1.70;;;;;;;0.35;100.00;101326.69;4973448;28;20030;-58
2023/03/15 04:07:37;;;;;;;5.90;2.20;;;;;;;-0.03;100.00;101272.53;4972014;28;20039;-58
2023/03/15 04:10:03;;;;;;;9.52;1.85;;;;;;;0.06;100.00;101304.63;4973201;28;20039;-57
2023/03/15 04:12:29;;;;;;;8.48;1.60;;;;;;;0.36;100.00;101364.69;4972187;28;20038;-57
2023/03/15 04:14:54;;;;;;;4.43;1.40;;;;;;;0.06;100.00;101300.28;4972047;28;20174;-57
2023/03/15 04:17:20;;;;;;;10.77;1.88;;;;;;;0.51;100.00;101367.53;4973225;28;20042;-56
2023/03/15 04:19:48;;;;;;;4.47;1.60;;;;;;;0.63;100.00;101374.63;4973122;28;20035;-59
2023/03/15 04:22:14;;;;;;;5.75;1.95;;;;;;;0.40;100.00;101317.28;4971539;28;20730;-56
2023/03/15 04:24:42;;;;;;;5.05;1.85;;;;;;;0.90;100.00;101401.00;4971863;28;20134;-57
2023/03/15 04:27:08;;;;;;;4.22;1.80;;;;;;;0.59;100.00;101311.53;4972752;28;20047;-57
2023/03/15 04:29:34;;;;;;;7.97;2.22;;;;;;;1.10;100.00;101386.63;4987303;28;20035;-57
2023/03/15 04:32:01;;;;;;;7.28;2.08;;;;;;;0.78;100.00;101328.25;4973056;28;20405;-57
2023/03/15 04:34:29;;;;;;;8.43;2.50;;;;;;;0.90;100.00;101342.25;4972811;28;20035;-58
2023/03/15 04:36:56;;;;;;;4.60;2.07;;;;;;;1.25;100.00;101397.22;4971600;28;20076;-56
2023/03/15 04:39:22;;;;;;;8.48;2.15;;;;;;;1.28;100.00;101418.00;4972834;28;20144;-57
2023/03/15 04:41:48;;;;;;;7.90;1.80;;;;;;;1.31;100.00;101406.78;4972865;28;20039;-58
2023/03/15 04:44:15;;;;;;;9.07;2.47;;;;;;;1.31;100.00;101406.78;4971905;28;20042;-57
2023/03/15 04:46:42;;;;;;;6.97;2.33;;;;;;;0.81;100.00;101336.06;4973213;28;20050;-56
2023/03/15 04:49:08;;;;;;;7.55;2.28;;;;;;;1.16;100.00;101412.63;4972656;28;20042;-57
2023/03/15 04:51:33;;;;;;;5.82;1.52;;;;;;;0.72;100.00;101362.72;4972679;28;20062;-57
2023/03/15 04:53:59;;;;;;;9.45;2.22;;;;;;;0.91;100.00;101431.22;4987416;28;20030;-56
2023/03/15 04:56:25;;;;;;;10.15;2.70;;;;;;;0.34;100.00;101328.41;4971547;28;20031;-55
2023/03/15 04:58:50;;;;;;;8.60;1.90;;;;;;;0.67;100.00;101418.78;4972839;28;20403;-57
2023/03/15 05:01:16;;;;;;;7.63;2.15;;;;;;;0.49;100.00;101408.09;4971992;28;20035;-56
2023/03/15 05:03:41;;;;;;;6.55;2.22;;;;;;;0.49;100.00;101427.09;4988731;28;20379;-57
2023/03/15 05:06:06;;;;;;;5.43;2.50;;;;;;;-0.05;100.00;101349.28;4976436;28;20042;-57
2023/03/15 05:08:35;;;;;;;5.50;2.28;;;;;;;0.34;100.00;101437.16;4976676;28;20042;-57
2023/03/15 05:11:04;;;;;;;8.00;2.35;;;;;;;0.26;100.00;101435.28;4975145;28;20094;-58
2023/03/15 05:13:30;;;;;;;5.28;2.30;;;;;;;0.25;100.00;101444.75;4976485;28;20031;-58
2023/03/15 05:15:55;;;;;;;15.82;3.05;;;;;;;-0.13;100.00;101387.09;4991480;28;20031;-57
2023/03/15 05:18:21;;;;;;;13.90;2.47;;;;;;;0.19;100.00;101446.34;4975533;28;20062;-56
2023/03/15 05:20:46;;;;;;;5.65;2.50;;;;;;;0.10;100.00;101439.28;4976238;28;20045;-56
2023/03/15 05:23:12;;;;;;;13.55;2.90;;;;;;;0.17;100.00;101450.66;4976148;28;20050;-55
2023/03/15 05:25:38;;;;;;;8.73;2.53;;;;;;;-0.15;100.00;101398.25;4990885;28;20447;-57
2023/03/15 05:28:03;;;;;;;8.32;3.28;;;;;;;-0.30;100.00;101379.84;4975798;28;20043;-57
2023/03/15 05:30:29;;;;;;;11.13;3.25;;;;;;;-0.11;100.00;101394.88;4974672;28;20479;-58
2023/03/15 05:32:55;;;;;;;6.70;2.90;;;;;;;-0.11;100.00;101372.47;4976006;28;20465;-57
2023/03/15 05:35:23;;;;;;;9.52;3.47;;;;;;;0.44;100.00;101464.97;4976087;28;20030;-56
2023/03/15 05:37:48;;;;;;;13.63;3.97;;;;;;;0.45;100.00;101446.00;4990312;28;20101;-57
2023/03/15 05:40:14;;;;;;;9.75;3.08;;;;;;;0.06;100.00;101390.88;4976098;28;20479;-56
2023/03/15 05:42:40;;;;;;;8.05;3.22;;;;;;;0.03;100.00;101398.59;4975656;28;20031;-58
2023/03/15 05:45:06;;;;;;;10.50;3.70;;;;;;;0.39;100.00;101476.97;4974532;28;20078;-58
2023/03/15 05:47:31;;;;;;;9.32;4.00;;;;;;;0.31;100.00;101486.31;4975965;28;20062;-58
2023/03/15 05:49:57;;;;;;;10.88;3.65;;;;;;;0.08;100.00;101471.16;4990765;28;20065;-58
2023/03/15 05:52:22;;;;;;;7.30;3.97;;;;;;;-0.40;100.00;101398.59;4975256;28;20072;-58
2023/03/15 05:54:48;;;;;;;13.88;4.22;;;;;;;0.00;100.00;101474.47;4975559;28;20170;-58
2023/03/15 05:57:13;;;;;;;11.35;3.78;;;;;;;0.06;100.00;101517.72;4975619;28;20461;-58
2023/03/15 05:59:39;;;;;;;12.18;3.80;;;;;;;0.05;100.00;101512.50;4975599;28;20026;-57
2023/03/15 06:02:04;;;;;;;10.13;3.95;;;;;;;0.03;100.00;101506.44;4973373;28;20035;-58
2023/03/15 06:04:30;;;;;;;8.73;3.95;;;;;;;-0.10;100.00;101511.34;4974188;28;20038;-59
2023/03/15 06:06:55;;;;;;;12.20;3.50;;;;;;;0.08;100.00;101517.75;4975094;28;20035;-54
2023/03/15 06:09:21;;;;;;;14.20;3.97;;;;;;;0.08;100.00;101541.94;4971222;28;20047;-56
2023/03/15 06:11:46;;;;;;;14.38;3.97;;;;;;;-0.37;100.00;101464.19;4974105;28;20045;-57
2023/03/15 06:14:11;;;;;;;17.13;4.22;;;;;;;-0.01;100.00;101524.50;4971942;28;20042;-57
2023/03/15 06:16:37;;;;;;;16.83;5.55;;;;;;;0.03;100.00;101533.16;4973201;28;20040;-58
2023/03/15 06:19:03;;;;;;;15.07;4.10;;;;;;;-0.29;100.00;101479.91;4972547;28;20067;-58
2023/03/15 06:21:28;;;;;;;7.15;3.40;;;;;;;0.07;100.00;101554.81;4975045;28;20086;-57
2023/03/15 06:23:53;;;;;;;13.32;3.55;;;;;;;0.06;100.00;101558.28;4974326;28;20647;-57
2023/03/15 06:26:19;;;;;;;15.35;3.90;;;;;;;0.07;100.00;101563.47;4977795;28;20034;-57
2023/03/15 06:28:45;;;;;;;8.88;3.45;;;;;;;0.06;100.00;101569.47;4974005;28;20041;-58
2023/03/15 06:31:12;;;;;;;13.05;3.15;;;;;;;0.02;100.00;101559.91;4971067;28;20118;-58
2023/03/15 06:33:38;;;;;;;11.07;3.28;;;;;;;0.06;100.00;101547.91;4974933;28;20030;-56
2023/03/15 06:36:04;;;;;;;10.80;4.72;;;;;;;-0.02;100.00;101514.97;4973589;28;20086;-57
2023/03/15 06:38:30;;;;;;;9.35;3.50;;;;;;;0.10;100.00;101508.31;4974979;28;20072;-56
2023/03/15 06:40:57;;;;;;;11.25;3.90;;;;;;;0.41;100.00;101552.09;4973873;28;20031;-58
2023/03/15 06:43:23;;;;;;;20.30;4.25;;;;;;;0.65;100.00;101580.19;4973994;28;20038;-57
2023/03/15 06:45:49;;;;;;;12.25;4.30;;;;;;;0.57;100.00;101561.91;4974521;28;20066;-58
2023/03/15 06:48:15;;;;;;;17.38;3.75;;;;;;;0.58;100.00;101574.03;4972164;28;20030;-57
2023/03/15 06:50:40;;;;;;;12.30;4.47;;;;;;;0.33;100.00;101525.16;4973275;28;20035;-57
2023/03/15 06:53:06;;;;;;;14.98;3.92;;;;;;;0.76;100.00;101581.28;4973833;28;20122;-58
2023/03/15 06:55:31;;;;;;;18.25;4.60;;;;;;;0.64;100.00;101549.97;4955125;28;20089;-59
2023/03/15 06:57:57;;;;;;;11.52;4.85;;;;;;;1.13;100.00;101597.56;4967147;28;20070;-59
2023/03/15 07:00:22;;;;;;;15.60;4.63;;;;;;;0.83;100.00;101513.16;4972267;28;20030;-57
2023/03/15 07:02:48;;;;;;;15.55;4.88;;;;;;;0.87;100.00;101509.78;4972836;28;20407;-56
2023/03/15 07:05:13;;;;;;;14.55;4.93;;;;;;;1.01;100.00;101527.34;4989041;28;20051;-57
2023/03/15 07:07:39;;;;;;;15.05;5.60;;;;;;;1.12;100.00;101543.94;4971434;28;20058;-57
2023/03/15 07:10:05;;;;;;;19.77;6.25;;;;;;;1.56;100.00;101604.34;4972962;28;20038;-56
2023/03/15 07:12:30;;;;;;;14.98;5.00;;;;;;;1.60;100.00;101606.16;4971860;28;20039;-57
2023/03/15 07:14:55;;;;;;;14.48;5.20;;;;;;;1.56;100.00;101604.34;4974156;28;20069;-57
2023/03/15 07:17:21;;;;;;;13.63;3.55;;;;;;;1.33;100.00;101565.88;4971641;28;20043;-57
2023/03/15 07:19:46;;;;;;;21.70;4.75;;;;;;;1.35;100.00;101556.41;4973624;28;20043;-57
2023/03/15 07:22:12;;;;;;;17.73;4.93;;;;;;;1.79;100.00;101619.38;4972185;28;20364;-58
2023/03/15 07:24:38;;;;;;;14.15;5.15;;;;;;;2.05;100.00;101626.72;4988276;28;20045;-58
2023/03/15 07:27:03;;;;;;;17.13;4.80;;;;;;;2.03;100.00;101581.69;4973405;28;20125;-58
2023/03/15 07:29:29;;;;;;;17.45;5.40;;;;;;;2.25;100.00;101543.88;4971249;28;20089;-57
2023/03/15 07:31:54;;;;;;;11.32;3.55;;;;;;;3.10;100.00;101625.44;4973528;28;20039;-58
2023/03/15 07:34:20;;;;;;;12.60;2.90;;;;;;;3.66;100.00;101628.56;4967980;28;20054;-58
2023/03/15 07:36:46;;;;;;;8.38;2.78;;;;;;;3.93;100.00;101616.66;4970489;28;20039;-58
2023/03/15 07:39:11;;;;;;;9.20;2.90;;;;;;;4.28;100.00;101626.41;4971287;28;20041;-57
2023/03/15 07:41:36;;;;;;;7.20;2.70;;;;;;;4.08;100.00;101557.69;4973679;28;20034;-58
2023/03/15 07:44:02;;;;;;;8.57;2.60;;;;;;;4.33;100.00;101562.16;4971021;28;20042;-58
2023/03/15 07:46:27;;;;;;;12.13;2.20;;;;;;;4.52;100.00;101563.97;4972994;28;20073;-59
2023/03/15 07:48:52;;;;;;;5.03;2.10;;;;;;;4.81;100.00;101600.59;4987891;28;20521;-59
2023/03/15 07:51:17;;;;;;;7.90;2.38;;;;;;;4.79;100.00;101590.13;4969464;28;20047;-58
2023/03/15 07:53:43;;;;;;;14.30;2.17;;;;;;;4.77;100.00;101601.44;4973282;28;20035;-58
2023/03/15 07:56:08;;;;;;;10.70;2.15;;;;;;;5.11;100.00;101660.66;4972014;28;20051;-57
2023/03/15 07:58:33;;;;;;;5.60;1.92;;;;;;;5.01;100.00;101664.13;4972979;28;20043;-58
2023/03/15 08:00:59;;;;;;;5.15;1.95;;;;;;;5.08;100.00;101676.31;4970510;28;20039;-56
2023/03/15 08:03:25;;;;;;;6.88;2.05;;;;;;;4.97;100.00;101683.25;4972680;28;20097;-58
2023/03/15 08:05:51;;;;;;;8.07;2.25;;;;;;;5.01;100.00;101685.88;4971760;28;20027;-57
2023/03/15 08:08:16;;;;;;;9.90;2.15;;;;;;;5.00;100.00;101693.69;4971966;28;20093;-58
2023/03/15 08:10:43;;;;;;;10.10;2.90;;;;;;;4.95;100.00;101693.69;4970828;28;20180;-58
2023/03/15 08:13:08;;;;;;;6.90;2.33;;;;;;;4.69;100.00;101647.47;4988000;28;20042;-58
2023/03/15 08:15:33;;;;;;;8.73;2.88;;;;;;;5.18;100.00;101698.09;4971405;28;20068;-58
2023/03/15 08:17:59;;;;;;;12.80;2.88;;;;;;;5.08;100.00;101658.03;4972873;28;20038;-58
2023/03/15 08:20:25;;;;;;;7.65;2.53;;;;;;;5.81;100.00;101720.88;4971383;28;20182;-58
2023/03/15 08:22:50;;;;;;;5.88;2.47;;;;;;;6.01;100.00;101680.00;4972843;28;20517;-58
2023/03/15 08:25:18;;;;;;;6.25;2.22;;;;;;;6.61;100.00;101647.63;4970064;28;20035;-59
2023/03/15 08:27:43;;;;;;;4.90;1.88;;;;;;;8.10;100.00;101727.06;4971260;28;20038;-59
2023/03/15 08:30:11;;;;;;;7.28;1.80;;;;;;;8.63;100.00;101758.09;4969492;28;20130;-59
2023/03/15 08:32:38;;;;;;;3.55;1.40;;;;;;;9.11;100.00;101691.03;4972464;28;20062;-59
2023/03/15 08:35:04;;;;;;;5.93;1.80;;;;;;;10.15;100.00;101762.28;4971260;28;20644;-57
2023/03/15 08:37:30;;;;;;;8.30;1.92;;;;;;;10.08;100.00;101773.75;4972123;28;20037;-59
2023/03/15 08:40:04;;;;;;;9.18;2.13;;;;;;;10.35;100.00;101767.22;4971092;28;20110;-59
2023/03/15 08:42:29;;;;;;;9.27;2.28;;;;;;;10.73;100.00;101775.31;4971679;28;20070;-59
2023/03/15 08:44:58;;;;;;;5.60;1.90;;;;;;;10.89;100.00;101783.78;4971192;28;20125;-59
2023/03/15 08:47:24;;;;;;;5.22;1.75;;;;;;;11.18;100.00;101795.50;4972660;28;20098;-59
2023/03/15 08:49:52;;;;;;;11.85;1.88;;;;;;;11.32;100.00;101789.97;4971439;28;20055;-59
2023/03/15 08:52:18;;;;;;;4.78;1.42;;;;;;;11.14;100.00;101735.88;4972620;28;20483;-58
2023/03/15 08:54:43;;;;;;;5.30;1.40;;;;;;;11.95;100.00;101797.41;4972511;28;20098;-60
2023/03/15 08:57:08;;;;;;;4.30;1.42;;;;;;;12.29;100.00;101791.31;4971665;28;20035;-59
2023/03/15 08:59:34;;;;;;;7.35;1.88;;;;;;;12.77;100.00;101789.22;4972598;28;20038;-58
2023/03/15 09:02:00;;;;;;;3.97;1.25;;;;;;;13.11;100.00;101783.03;4971206;28;20042;-58
2023/03/15 09:04:25;;;;;;;7.20;1.60;;;;;;;12.78;100.00;101738.09;4971388;28;20046;-58
2023/03/15 09:06:51;;;;;;;8.00;1.55;;;;;;;13.05;100.00;101799.91;4987451;28;20485;-59
2023/03/15 09:09:16;;;;;;;4.00;1.15;;;;;;;13.32;100.00;101798.31;4972486;28;20129;-58
2023/03/15 09:11:42;;;;;;;5.90;1.13;;;;;;;13.11;100.00;101738.97;4972223;28;20165;-58
2023/03/15 09:14:07;;;;;;;5.22;1.83;;;;;;;13.62;100.00;101748.94;4971401;28;20070;-58
2023/03/15 09:16:32;;;;;;;5.57;1.60;;;;;;;14.43;100.00;101787.81;4968610;28;20034;-59
2023/03/15 09:18:58;;;;;;;4.13;1.17;;;;;;;14.13;100.00;101779.06;4968466;28;20043;-59
2023/03/15 09:21:24;;;;;;;6.65;2.08;;;;;;;13.69;100.00;101777.78;4970619;28;20051;-58
2023/03/15 09:23:49;;;;;;;5.13;1.52;;;;;;;13.33;100.00;101737.47;4969242;28;20507;-59
2023/03/15 09:26:15;;;;;;;7.88;1.58;;;;;;;13.99;100.00;101723.03;4970763;28;20544;-59
2023/03/15 09:28:40;;;;;;;3.83;1.50;;;;;;;14.40;100.00;101666.94;4970325;28;20038;-59
2023/03/15 09:31:05;;;;;;;4.25;1.50;;;;;;;15.54;95.28;101782.97;4969311;28;20035;-59
2023/03/15 09:33:32;;;;;;;5.00;1.40;;;;;;;15.09;97.05;101731.59;4970790;28;20118;-58
2023/03/15 09:35:57;;;;;;;4.97;1.30;;;;;;;14.97;100.00;101770.00;4952304;28;20110;-60
2023/03/15 09:38:23;;;;;;;5.85;1.50;;;;;;;15.38;100.00;101733.16;4970326;28;20545;-58
2023/03/15 09:40:49;;;;;;;4.82;1.70;;;;;;;15.98;94.46;101777.72;4970485;28;20282;-58
2023/03/15 09:43:14;;;;;;;4.07;1.42;;;;;;;15.81;94.13;101781.03;4969443;28;20069;-58
2023/03/15 09:46:24;;;;;;;4.82;1.92;;;;;;;15.97;99.25;101807.84;4970279;28;20059;-58
2023/03/15 09:48:58;;;;;;;5.32;1.35;;;;;;;16.01;87.38;101743.94;4970438;28;20046;-58
2023/03/15 09:51:27;;;;;;;3.22;1.40;;;;;;;16.19;96.68;101798.09;4985037;28;20054;-58
2023/03/15 09:54:04;;;;;;;9.20;1.60;;;;;;;16.24;88.59;101797.00;4974279;28;20126;-58
2023/03/15 09:56:35;;;;;;;6.13;1.40;;;;;;;16.60;84.33;101804.41;4974209;28;20042;-59
2023/03/15 09:59:01;;;;;;;4.32;1.45;;;;;;;16.23;84.11;101791.72;4989115;28;20125;-59
2023/03/15 10:01:46;;;;;;;4.82;1.30;;;;;;;15.15;76.79;101665.03;4964489;28;20443;-59
2023/03/15 10:04:26;;;;;;;4.85;1.38;;;;;;;16.16;81.21;101814.16;4961884;28;20035;-59
2023/03/15 10:06:58;;;;;;;3.63;1.40;;;;;;;16.76;81.86;101816.09;4972117;28;20039;-59
2023/03/15 10:09:28;;;;;;;4.78;1.67;;;;;;;17.04;62.05;101813.13;4972150;28;20117;-59
2023/03/15 10:12:01;;;;;;;6.10;1.35;;;;;;;17.11;61.91;101785.31;4957049;28;20043;-59
2023/03/15 10:14:38;;;;;;;5.25;1.52;;;;;;;17.44;60.91;101819.28;4971775;28;20045;-59
2023/03/15 10:17:11;;;;;;;3.38;1.30;;;;;;;16.46;51.01;101748.28;4969818;28;20118;-60
2023/03/15 10:19:51;;;;;;;5.20;1.23;;;;;;;16.90;51.62;101826.19;4986686;28;20046;-59
2023/03/15 10:22:34;;;;;;;3.70;1.33;;;;;;;17.67;58.15;101830.69;4965426;28;20226;-59
2023/03/15 10:25:28;;;;;;;4.90;1.25;;;;;;;17.72;58.29;101829.53;4971258;28;20042;-60
2023/03/15 10:27:58;;;;;;;3.67;1.48;;;;;;;18.36;59.00;101838.00;4970347;28;20053;-59
2023/03/15 10:30:26;;;;;;;3.83;0.90;;;;;;;22.55;75.35;104162.97;4982773;28;20035;-59
2023/03/15 10:33:02;;;;;;;3.90;1.10;;;;;;;;;;4967792;28;20303;-59
2023/03/15 10:35:28;;;;;;;4.03;1.17;;;;;;;;;;4957880;28;20121;-59
2023/03/15 10:37:53;;;;;;;4.32;1.05;;;;;;;;;;4953553;28;20155;-58
2023/03/15 10:40:37;;;;;;;4.15;1.20;;;;;;;;;;4982121;28;20074;-59
2023/03/15 10:43:12;;;;;;;4.30;0.95;;;;;;;-142.64;100.00;62639.88;4962649;28;20458;-60
2023/03/15 10:45:38;;;;;;;5.47;1.23;;;;;;;;;;4970603;28;20117;-59
2023/03/15 10:48:03;;;;;;;2.78;1.00;;;;;;;;;;4970513;28;20495;-60
2023/03/15 10:50:30;;;;;;;2.92;1.33;;;;;;;22.55;73.26;42187.03;4986874;28;20053;-60
2023/03/15 10:52:57;;;;;;;2.20;1.20;;;;;;;22.55;74.00;58178.75;4968970;28;20365;-59
2023/03/15 10:55:31;;;;;;;5.90;1.92;;;;;;;22.55;75.35;58178.75;4967590;28;20484;-58
2023/03/15 10:57:59;;;;;;;1.10;0.70;;;;;;;22.55;74.00;42187.03;4977072;28;20426;-59
2023/03/15 11:00:28;;;;;;;3.72;0.93;;;;;;;22.55;79.99;104162.97;4961969;28;20145;-60
2023/03/15 11:03:26;;;;;;;5.60;1.10;;;;;;;22.55;75.35;58178.75;4971548;28;20031;-59
2023/03/15 11:05:55;;;;;;;2.95;1.00;;;;;;;;;;4972804;28;20235;-59
2023/03/15 11:08:38;;;;;;;4.25;0.98;;;;;;;22.55;100.00;104162.97;4965872;28;20042;-59
2023/03/15 11:11:04;;;;;;;6.38;1.00;;;;;;;22.55;100.00;58178.75;4956477;28;20035;-59
2023/03/15 11:13:32;;;;;;;6.30;1.40;;;;;;;22.55;95.13;95844.03;4966222;28;20494;-59
2023/03/15 11:16:03;;;;;;;3.70;1.35;;;;;;;22.55;100.00;104162.97;4962827;28;20042;-58
2023/03/15 11:18:56;;;;;;;5.07;1.27;;;;;;;22.55;75.35;58178.75;4958503;28;20066;-58
2023/03/15 11:21:25;;;;;;;5.28;1.40;;;;;;;22.55;100.00;58178.75;4968245;28;20650;-59
2023/03/15 11:23:51;;;;;;;5.07;1.92;;;;;;;22.55;74.00;104162.97;4962877;28;20098;-58
2023/03/15 11:26:18;;;;;;;4.45;1.92;;;;;;;;;;4947460;28;20039;-58
2023/03/15 11:28:48;;;;;;;6.90;1.40;;;;;;;-142.64;100.00;99852.28;4956226;28;20106;-59
2023/03/15 11:31:13;;;;;;;4.07;1.73;;;;;;;-142.64;100.00;67425.97;4969634;28;20061;-59
2023/03/15 11:33:51;;;;;;;7.93;1.40;;;;;;;-142.64;100.00;99852.28;4962213;28;20060;-60
2023/03/15 11:36:19;;;;;;;5.07;1.42;;;;;;;-142.64;100.00;58178.75;4961578;28;20332;-60
2023/03/15 11:38:44;;;;;;;4.45;1.75;;;;;;;;;;4969007;28;20101;-59